Terminal Aerodrome Forecast
Issued by NWS

Home | Current Version | Previous Version | Text Only | Print | Product List | Glossary On
Versions: 1 2 3 4 5 6 7 8 9 10 11 12 13 14 15 16 17 18 19 20 21 22 23 24 25
000
FTUS43 KABR 070127 AAA
TAFMBG
TAF AMD
KMBG 070127Z 0701/0724 01007KT 5SM FU SKC
     FM070300 VRB05KT 4SM FU SKC
     FM071500 16009KT 6SM FU SKC=

USA.gov is the U.S. government's official web portal to all federal, state and local government web resources and services.